sensor_id;sensor_type;location;lat;lon;timestamp;P1;durP1;ratioP1;P2;durP2;ratioP2
10303;SDS011;5197;48.152;8.590;2023-08-31T00:02:04;1.60;;;1.40;;
10303;SDS011;5197;48.152;8.590;2023-08-31T00:04:31;1.87;;;1.67;;
10303;SDS011;5197;48.152;8.590;2023-08-31T00:06:58;1.60;;;1.50;;
10303;SDS011;5197;48.152;8.590;2023-08-31T00:09:25;2.40;;;1.53;;
10303;SDS011;5197;48.152;8.590;2023-08-31T00:11:53;1.87;;;1.77;;
10303;SDS011;5197;48.152;8.590;2023-08-31T00:14:21;1.93;;;1.83;;
10303;SDS011;5197;48.152;8.590;2023-08-31T00:16:48;1.60;;;1.43;;
10303;SDS011;5197;48.152;8.590;2023-08-31T00:19:16;2.23;;;2.03;;
10303;SDS011;5197;48.152;8.590;2023-08-31T00:21:43;2.93;;;1.70;;
10303;SDS011;5197;48.152;8.590;2023-08-31T00:24:10;3.73;;;2.17;;
10303;SDS011;5197;48.152;8.590;2023-08-31T00:26:38;1.90;;;1.80;;
10303;SDS011;5197;48.152;8.590;2023-08-31T00:29:09;1.90;;;1.80;;
10303;SDS011;5197;48.152;8.590;2023-08-31T00:31:40;2.03;;;1.90;;
10303;SDS011;5197;48.152;8.590;2023-08-31T00:34:08;2.07;;;1.97;;
10303;SDS011;5197;48.152;8.590;2023-08-31T00:36:43;1.77;;;1.67;;
10303;SDS011;5197;48.152;8.590;2023-08-31T00:39:11;1.93;;;1.83;;
10303;SDS011;5197;48.152;8.590;2023-08-31T00:41:38;2.93;;;1.77;;
10303;SDS011;5197;48.152;8.590;2023-08-31T00:44:05;2.60;;;1.80;;
10303;SDS011;5197;48.152;8.590;2023-08-31T00:46:33;2.77;;;1.77;;
10303;SDS011;5197;48.152;8.590;2023-08-31T00:49:01;2.10;;;2.00;;
10303;SDS011;5197;48.152;8.590;2023-08-31T00:51:30;1.97;;;1.87;;
10303;SDS011;5197;48.152;8.590;2023-08-31T00:53:57;3.20;;;2.40;;
10303;SDS011;5197;48.152;8.590;2023-08-31T00:56:25;2.20;;;2.00;;
10303;SDS011;5197;48.152;8.590;2023-08-31T00:58:53;2.30;;;2.10;;
10303;SDS011;5197;48.152;8.590;2023-08-31T01:15:11;1.90;;;1.80;;
10303;SDS011;5197;48.152;8.590;2023-08-31T01:17:40;3.33;;;1.90;;
10303;SDS011;5197;48.152;8.590;2023-08-31T01:20:14;2.93;;;1.70;;
10303;SDS011;5197;48.152;8.590;2023-08-31T01:25:25;1.53;;;1.50;;
10303;SDS011;5197;48.152;8.590;2023-08-31T01:27:53;1.97;;;1.87;;
10303;SDS011;5197;48.152;8.590;2023-08-31T01:30:20;3.43;;;2.13;;
10303;SDS011;5197;48.152;8.590;2023-08-31T01:32:48;2.90;;;2.70;;
10303;SDS011;5197;48.152;8.590;2023-08-31T01:35:16;2.50;;;2.30;;
10303;SDS011;5197;48.152;8.590;2023-08-31T01:37:51;4.23;;;2.47;;
10303;SDS011;5197;48.152;8.590;2023-08-31T01:40:23;2.53;;;2.03;;
10303;SDS011;5197;48.152;8.590;2023-08-31T01:43:04;3.27;;;2.30;;
10303;SDS011;5197;48.152;8.590;2023-08-31T01:45:34;2.40;;;1.90;;
10303;SDS011;5197;48.152;8.590;2023-08-31T01:48:02;2.83;;;2.30;;
10303;SDS011;5197;48.152;8.590;2023-08-31T01:50:29;2.70;;;2.30;;
10303;SDS011;5197;48.152;8.590;2023-08-31T01:52:56;3.37;;;2.20;;
10303;SDS011;5197;48.152;8.590;2023-08-31T01:55:24;2.47;;;2.27;;
10303;SDS011;5197;48.152;8.590;2023-08-31T01:57:51;3.67;;;2.00;;
10303;SDS011;5197;48.152;8.590;2023-08-31T02:00:18;2.70;;;1.80;;
10303;SDS011;5197;48.152;8.590;2023-08-31T02:02:46;1.90;;;1.80;;
10303;SDS011;5197;48.152;8.590;2023-08-31T02:05:15;2.03;;;1.90;;
10303;SDS011;5197;48.152;8.590;2023-08-31T02:07:42;2.03;;;1.90;;
10303;SDS011;5197;48.152;8.590;2023-08-31T02:10:09;1.50;;;1.40;;
10303;SDS011;5197;48.152;8.590;2023-08-31T02:12:37;2.67;;;1.63;;
10303;SDS011;5197;48.152;8.590;2023-08-31T02:15:04;2.40;;;1.83;;
10303;SDS011;5197;48.152;8.590;2023-08-31T02:17:36;2.20;;;2.00;;
10303;SDS011;5197;48.152;8.590;2023-08-31T02:20:03;3.20;;;2.00;;
10303;SDS011;5197;48.152;8.590;2023-08-31T02:22:33;3.20;;;2.40;;
10303;SDS011;5197;48.152;8.590;2023-08-31T02:25:01;3.23;;;2.23;;
10303;SDS011;5197;48.152;8.590;2023-08-31T02:27:29;3.77;;;2.10;;
10303;SDS011;5197;48.152;8.590;2023-08-31T02:29:56;3.57;;;2.40;;
10303;SDS011;5197;48.152;8.590;2023-08-31T02:32:23;2.80;;;2.60;;
10303;SDS011;5197;48.152;8.590;2023-08-31T02:34:51;3.07;;;2.73;;
10303;SDS011;5197;48.152;8.590;2023-08-31T02:37:18;2.53;;;2.33;;
10303;SDS011;5197;48.152;8.590;2023-08-31T02:39:45;4.07;;;2.67;;
10303;SDS011;5197;48.152;8.590;2023-08-31T02:42:13;5.80;;;2.40;;
10303;SDS011;5197;48.152;8.590;2023-08-31T02:44:41;2.77;;;2.30;;
10303;SDS011;5197;48.152;8.590;2023-08-31T02:47:08;4.23;;;2.50;;
10303;SDS011;5197;48.152;8.590;2023-08-31T02:49:35;4.47;;;2.60;;
10303;SDS011;5197;48.152;8.590;2023-08-31T02:52:02;5.80;;;2.80;;
10303;SDS011;5197;48.152;8.590;2023-08-31T02:54:29;2.50;;;2.30;;
10303;SDS011;5197;48.152;8.590;2023-08-31T02:56:56;7.50;;;2.40;;
10303;SDS011;5197;48.152;8.590;2023-08-31T02:59:23;3.47;;;2.50;;
10303;SDS011;5197;48.152;8.590;2023-08-31T03:01:50;3.67;;;2.70;;
10303;SDS011;5197;48.152;8.590;2023-08-31T03:04:17;2.97;;;2.43;;
10303;SDS011;5197;48.152;8.590;2023-08-31T03:06:44;3.43;;;2.47;;
10303;SDS011;5197;48.152;8.590;2023-08-31T03:09:12;4.13;;;2.20;;
10303;SDS011;5197;48.152;8.590;2023-08-31T03:11:40;4.23;;;2.30;;
10303;SDS011;5197;48.152;8.590;2023-08-31T03:14:07;3.67;;;2.40;;
10303;SDS011;5197;48.152;8.590;2023-08-31T03:16:36;2.73;;;2.40;;
10303;SDS011;5197;48.152;8.590;2023-08-31T03:19:03;2.23;;;2.07;;
10303;SDS011;5197;48.152;8.590;2023-08-31T03:21:30;5.93;;;2.37;;
10303;SDS011;5197;48.152;8.590;2023-08-31T03:23:57;4.97;;;2.57;;
10303;SDS011;5197;48.152;8.590;2023-08-31T03:26:24;3.53;;;2.23;;
10303;SDS011;5197;48.152;8.590;2023-08-31T03:28:51;2.50;;;2.30;;
10303;SDS011;5197;48.152;8.590;2023-08-31T03:31:18;5.37;;;2.50;;
10303;SDS011;5197;48.152;8.590;2023-08-31T03:33:45;2.57;;;2.30;;
10303;SDS011;5197;48.152;8.590;2023-08-31T03:36:13;5.03;;;2.50;;
10303;SDS011;5197;48.152;8.590;2023-08-31T03:38:40;3.37;;;2.50;;
10303;SDS011;5197;48.152;8.590;2023-08-31T03:41:07;2.33;;;2.23;;
10303;SDS011;5197;48.152;8.590;2023-08-31T03:43:34;2.33;;;2.23;;
10303;SDS011;5197;48.152;8.590;2023-08-31T03:46:01;4.73;;;2.30;;
10303;SDS011;5197;48.152;8.590;2023-08-31T03:48:29;4.70;;;2.90;;
10303;SDS011;5197;48.152;8.590;2023-08-31T03:50:56;2.67;;;2.47;;
10303;SDS011;5197;48.152;8.590;2023-08-31T03:53:23;2.80;;;2.60;;
10303;SDS011;5197;48.152;8.590;2023-08-31T03:55:50;2.73;;;2.30;;
10303;SDS011;5197;48.152;8.590;2023-08-31T03:58:17;5.27;;;2.60;;
10303;SDS011;5197;48.152;8.590;2023-08-31T04:00:45;2.80;;;2.50;;
10303;SDS011;5197;48.152;8.590;2023-08-31T04:03:16;2.73;;;2.43;;
10303;SDS011;5197;48.152;8.590;2023-08-31T04:05:43;5.23;;;2.77;;
10303;SDS011;5197;48.152;8.590;2023-08-31T04:08:10;2.80;;;2.53;;
10303;SDS011;5197;48.152;8.590;2023-08-31T04:10:37;5.17;;;2.50;;
10303;SDS011;5197;48.152;8.590;2023-08-31T04:13:04;2.53;;;2.33;;
10303;SDS011;5197;48.152;8.590;2023-08-31T04:15:31;3.87;;;2.40;;
10303;SDS011;5197;48.152;8.590;2023-08-31T04:17:58;3.43;;;2.53;;
10303;SDS011;5197;48.152;8.590;2023-08-31T04:20:26;2.93;;;2.43;;
10303;SDS011;5197;48.152;8.590;2023-08-31T04:22:53;7.93;;;2.30;;
10303;SDS011;5197;48.152;8.590;2023-08-31T04:25:19;2.30;;;2.10;;
10303;SDS011;5197;48.152;8.590;2023-08-31T04:27:46;4.80;;;2.60;;
10303;SDS011;5197;48.152;8.590;2023-08-31T04:30:14;2.30;;;2.10;;
10303;SDS011;5197;48.152;8.590;2023-08-31T04:32:43;3.83;;;2.10;;
10303;SDS011;5197;48.152;8.590;2023-08-31T04:35:11;2.93;;;2.73;;
10303;SDS011;5197;48.152;8.590;2023-08-31T04:37:38;2.37;;;2.10;;
10303;SDS011;5197;48.152;8.590;2023-08-31T04:40:05;2.80;;;2.13;;
10303;SDS011;5197;48.152;8.590;2023-08-31T04:42:32;2.70;;;2.50;;
10303;SDS011;5197;48.152;8.590;2023-08-31T04:45:01;6.30;;;2.27;;
10303;SDS011;5197;48.152;8.590;2023-08-31T04:47:28;2.40;;;2.30;;
10303;SDS011;5197;48.152;8.590;2023-08-31T04:49:55;3.70;;;2.30;;
10303;SDS011;5197;48.152;8.590;2023-08-31T04:52:22;6.43;;;2.70;;
10303;SDS011;5197;48.152;8.590;2023-08-31T04:54:49;3.63;;;2.30;;
10303;SDS011;5197;48.152;8.590;2023-08-31T04:57:16;3.50;;;2.60;;
10303;SDS011;5197;48.152;8.590;2023-08-31T04:59:43;4.50;;;2.77;;
10303;SDS011;5197;48.152;8.590;2023-08-31T05:02:10;3.50;;;2.40;;
10303;SDS011;5197;48.152;8.590;2023-08-31T05:04:37;2.90;;;2.40;;
10303;SDS011;5197;48.152;8.590;2023-08-31T05:07:04;2.40;;;2.30;;
10303;SDS011;5197;48.152;8.590;2023-08-31T05:09:31;4.13;;;2.57;;
10303;SDS011;5197;48.152;8.590;2023-08-31T05:12:01;4.30;;;2.60;;
10303;SDS011;5197;48.152;8.590;2023-08-31T05:14:29;2.87;;;2.67;;
10303;SDS011;5197;48.152;8.590;2023-08-31T05:16:57;3.77;;;2.53;;
10303;SDS011;5197;48.152;8.590;2023-08-31T05:19:24;4.87;;;2.37;;
10303;SDS011;5197;48.152;8.590;2023-08-31T05:21:53;3.17;;;2.60;;
10303;SDS011;5197;48.152;8.590;2023-08-31T05:24:20;3.60;;;2.57;;
10303;SDS011;5197;48.152;8.590;2023-08-31T05:26:47;2.53;;;2.40;;
10303;SDS011;5197;48.152;8.590;2023-08-31T05:29:15;2.87;;;2.60;;
10303;SDS011;5197;48.152;8.590;2023-08-31T05:31:46;2.70;;;2.50;;
10303;SDS011;5197;48.152;8.590;2023-08-31T05:34:16;3.37;;;2.50;;
10303;SDS011;5197;48.152;8.590;2023-08-31T05:36:46;3.83;;;2.33;;
10303;SDS011;5197;48.152;8.590;2023-08-31T05:39:13;4.47;;;2.67;;
10303;SDS011;5197;48.152;8.590;2023-08-31T05:41:43;2.57;;;2.37;;
10303;SDS011;5197;48.152;8.590;2023-08-31T05:44:10;2.90;;;2.30;;
10303;SDS011;5197;48.152;8.590;2023-08-31T05:46:37;3.60;;;2.27;;
10303;SDS011;5197;48.152;8.590;2023-08-31T05:49:05;2.37;;;2.17;;
10303;SDS011;5197;48.152;8.590;2023-08-31T05:51:34;4.47;;;2.70;;
10303;SDS011;5197;48.152;8.590;2023-08-31T05:54:01;4.97;;;2.37;;
10303;SDS011;5197;48.152;8.590;2023-08-31T05:56:29;4.60;;;2.50;;
10303;SDS011;5197;48.152;8.590;2023-08-31T05:58:57;2.63;;;2.37;;
10303;SDS011;5197;48.152;8.590;2023-08-31T06:01:24;3.17;;;2.70;;
10303;SDS011;5197;48.152;8.590;2023-08-31T06:03:51;2.83;;;2.63;;
10303;SDS011;5197;48.152;8.590;2023-08-31T06:06:18;2.50;;;2.37;;
10303;SDS011;5197;48.152;8.590;2023-08-31T06:08:46;3.03;;;2.70;;
10303;SDS011;5197;48.152;8.590;2023-08-31T06:11:13;2.70;;;2.53;;
10303;SDS011;5197;48.152;8.590;2023-08-31T06:13:40;2.67;;;2.47;;
10303;SDS011;5197;48.152;8.590;2023-08-31T06:16:07;3.43;;;2.17;;
10303;SDS011;5197;48.152;8.590;2023-08-31T06:18:34;3.23;;;2.40;;
10303;SDS011;5197;48.152;8.590;2023-08-31T06:21:01;3.70;;;2.50;;
10303;SDS011;5197;48.152;8.590;2023-08-31T06:23:29;2.47;;;2.27;;
10303;SDS011;5197;48.152;8.590;2023-08-31T06:25:56;5.17;;;2.33;;
10303;SDS011;5197;48.152;8.590;2023-08-31T06:28:23;2.43;;;2.23;;
10303;SDS011;5197;48.152;8.590;2023-08-31T06:30:50;5.40;;;2.53;;
10303;SDS011;5197;48.152;8.590;2023-08-31T06:33:17;2.90;;;2.27;;
10303;SDS011;5197;48.152;8.590;2023-08-31T06:35:46;2.57;;;2.03;;
10303;SDS011;5197;48.152;8.590;2023-08-31T06:38:19;4.47;;;2.63;;
10303;SDS011;5197;48.152;8.590;2023-08-31T06:40:46;3.00;;;2.33;;
10303;SDS011;5197;48.152;8.590;2023-08-31T06:43:13;4.70;;;2.37;;
10303;SDS011;5197;48.152;8.590;2023-08-31T06:45:41;2.37;;;2.13;;
10303;SDS011;5197;48.152;8.590;2023-08-31T06:48:08;5.23;;;1.80;;
10303;SDS011;5197;48.152;8.590;2023-08-31T06:50:36;2.20;;;1.67;;
10303;SDS011;5197;48.152;8.590;2023-08-31T06:53:03;3.03;;;1.43;;
10303;SDS011;5197;48.152;8.590;2023-08-31T06:55:30;1.67;;;1.53;;
10303;SDS011;5197;48.152;8.590;2023-08-31T06:57:59;5.23;;;1.87;;
10303;SDS011;5197;48.152;8.590;2023-08-31T07:00:27;1.50;;;1.40;;
10303;SDS011;5197;48.152;8.590;2023-08-31T07:02:54;1.57;;;1.47;;
10303;SDS011;5197;48.152;8.590;2023-08-31T07:05:24;2.13;;;1.33;;
10303;SDS011;5197;48.152;8.590;2023-08-31T07:07:53;3.27;;;1.67;;
10303;SDS011;5197;48.152;8.590;2023-08-31T07:10:20;1.80;;;1.70;;
10303;SDS011;5197;48.152;8.590;2023-08-31T07:12:48;1.77;;;1.67;;
10303;SDS011;5197;48.152;8.590;2023-08-31T07:15:16;1.80;;;1.70;;
10303;SDS011;5197;48.152;8.590;2023-08-31T07:17:43;3.00;;;1.70;;
10303;SDS011;5197;48.152;8.590;2023-08-31T07:20:11;1.97;;;1.80;;
10303;SDS011;5197;48.152;8.590;2023-08-31T07:22:38;5.53;;;1.70;;
10303;SDS011;5197;48.152;8.590;2023-08-31T07:25:07;5.47;;;2.00;;
10303;SDS011;5197;48.152;8.590;2023-08-31T07:27:34;1.83;;;1.43;;
10303;SDS011;5197;48.152;8.590;2023-08-31T07:30:01;2.80;;;1.60;;
10303;SDS011;5197;48.152;8.590;2023-08-31T07:32:30;1.40;;;1.30;;
10303;SDS011;5197;48.152;8.590;2023-08-31T07:34:57;3.13;;;1.70;;
10303;SDS011;5197;48.152;8.590;2023-08-31T07:37:25;1.83;;;1.63;;
10303;SDS011;5197;48.152;8.590;2023-08-31T07:39:52;1.90;;;1.58;;
10303;SDS011;5197;48.152;8.590;2023-08-31T07:42:19;5.32;;;1.75;;
10303;SDS011;5197;48.152;8.590;2023-08-31T07:44:46;5.13;;;1.80;;
10303;SDS011;5197;48.152;8.590;2023-08-31T07:47:13;2.08;;;1.42;;
10303;SDS011;5197;48.152;8.590;2023-08-31T07:49:40;3.40;;;1.83;;
10303;SDS011;5197;48.152;8.590;2023-08-31T07:52:08;2.20;;;1.75;;
10303;SDS011;5197;48.152;8.590;2023-08-31T07:54:35;1.85;;;1.50;;
10303;SDS011;5197;48.152;8.590;2023-08-31T07:57:02;3.28;;;1.60;;
10303;SDS011;5197;48.152;8.590;2023-08-31T07:59:29;2.85;;;1.85;;
10303;SDS011;5197;48.152;8.590;2023-08-31T08:01:56;1.70;;;1.60;;
10303;SDS011;5197;48.152;8.590;2023-08-31T08:04:23;2.58;;;1.60;;
10303;SDS011;5197;48.152;8.590;2023-08-31T08:06:52;4.80;;;1.65;;
10303;SDS011;5197;48.152;8.590;2023-08-31T08:09:20;1.83;;;1.70;;
10303;SDS011;5197;48.152;8.590;2023-08-31T08:11:47;3.58;;;1.45;;
10303;SDS011;5197;48.152;8.590;2023-08-31T08:14:14;3.55;;;1.58;;
10303;SDS011;5197;48.152;8.590;2023-08-31T08:16:42;1.55;;;1.45;;
10303;SDS011;5197;48.152;8.590;2023-08-31T08:19:09;2.75;;;1.73;;
10303;SDS011;5197;48.152;8.590;2023-08-31T08:21:36;3.08;;;1.85;;
10303;SDS011;5197;48.152;8.590;2023-08-31T08:24:03;2.30;;;1.58;;
10303;SDS011;5197;48.152;8.590;2023-08-31T08:26:31;7.40;;;1.58;;
10303;SDS011;5197;48.152;8.590;2023-08-31T08:28:58;2.28;;;1.77;;
10303;SDS011;5197;48.152;8.590;2023-08-31T08:31:25;2.80;;;1.58;;
10303;SDS011;5197;48.152;8.590;2023-08-31T08:33:52;2.97;;;1.50;;
10303;SDS011;5197;48.152;8.590;2023-08-31T08:36:20;4.10;;;1.60;;
10303;SDS011;5197;48.152;8.590;2023-08-31T08:38:47;1.73;;;1.58;;
10303;SDS011;5197;48.152;8.590;2023-08-31T08:41:14;1.80;;;1.50;;
10303;SDS011;5197;48.152;8.590;2023-08-31T08:43:45;4.10;;;1.75;;
10303;SDS011;5197;48.152;8.590;2023-08-31T08:46:14;2.40;;;1.50;;
10303;SDS011;5197;48.152;8.590;2023-08-31T08:48:41;2.88;;;1.60;;
10303;SDS011;5197;48.152;8.590;2023-08-31T08:51:10;6.30;;;1.70;;
10303;SDS011;5197;48.152;8.590;2023-08-31T08:53:37;3.08;;;2.03;;
10303;SDS011;5197;48.152;8.590;2023-08-31T08:56:07;4.18;;;1.70;;
10303;SDS011;5197;48.152;8.590;2023-08-31T08:58:34;1.80;;;1.60;;
10303;SDS011;5197;48.152;8.590;2023-08-31T09:01:01;4.38;;;1.42;;
10303;SDS011;5197;48.152;8.590;2023-08-31T09:03:30;1.85;;;1.60;;
10303;SDS011;5197;48.152;8.590;2023-08-31T09:05:59;2.00;;;1.40;;
10303;SDS011;5197;48.152;8.590;2023-08-31T09:08:30;3.13;;;1.67;;
10303;SDS011;5197;48.152;8.590;2023-08-31T09:10:57;1.35;;;1.23;;
10303;SDS011;5197;48.152;8.590;2023-08-31T09:13:28;2.65;;;1.75;;
10303;SDS011;5197;48.152;8.590;2023-08-31T09:15:56;2.60;;;1.38;;
10303;SDS011;5197;48.152;8.590;2023-08-31T09:18:25;3.83;;;1.97;;
10303;SDS011;5197;48.152;8.590;2023-08-31T09:20:54;2.37;;;1.60;;
10303;SDS011;5197;48.152;8.590;2023-08-31T09:23:25;1.70;;;1.60;;
10303;SDS011;5197;48.152;8.590;2023-08-31T09:25:56;3.33;;;1.93;;
10303;SDS011;5197;48.152;8.590;2023-08-31T09:28:24;2.30;;;1.10;;
10303;SDS011;5197;48.152;8.590;2023-08-31T09:31:05;2.13;;;1.27;;
10303;SDS011;5197;48.152;8.590;2023-08-31T09:33:34;2.77;;;1.80;;
10303;SDS011;5197;48.152;8.590;2023-08-31T09:36:03;3.50;;;1.63;;
10303;SDS011;5197;48.152;8.590;2023-08-31T09:38:33;4.53;;;1.67;;
10303;SDS011;5197;48.152;8.590;2023-08-31T09:41:10;3.97;;;1.50;;
10303;SDS011;5197;48.152;8.590;2023-08-31T09:43:38;3.27;;;1.80;;
10303;SDS011;5197;48.152;8.590;2023-08-31T09:46:05;3.47;;;1.60;;
10303;SDS011;5197;48.152;8.590;2023-08-31T09:48:33;2.90;;;1.77;;
10303;SDS011;5197;48.152;8.590;2023-08-31T09:51:04;2.90;;;1.57;;
10303;SDS011;5197;48.152;8.590;2023-08-31T09:53:31;2.93;;;1.77;;
10303;SDS011;5197;48.152;8.590;2023-08-31T09:56:02;3.03;;;1.70;;
10303;SDS011;5197;48.152;8.590;2023-08-31T09:58:32;1.93;;;1.57;;
10303;SDS011;5197;48.152;8.590;2023-08-31T10:00:59;4.57;;;1.70;;
10303;SDS011;5197;48.152;8.590;2023-08-31T10:03:28;2.53;;;1.70;;
10303;SDS011;5197;48.152;8.590;2023-08-31T10:05:56;4.13;;;1.60;;
10303;SDS011;5197;48.152;8.590;2023-08-31T10:08:25;1.60;;;1.50;;
10303;SDS011;5197;48.152;8.590;2023-08-31T10:10:59;2.87;;;1.50;;
10303;SDS011;5197;48.152;8.590;2023-08-31T10:13:31;1.97;;;1.30;;
10303;SDS011;5197;48.152;8.590;2023-08-31T10:15:59;3.07;;;1.63;;
10303;SDS011;5197;48.152;8.590;2023-08-31T10:18:26;3.00;;;1.63;;
10303;SDS011;5197;48.152;8.590;2023-08-31T10:20:54;4.53;;;1.33;;
10303;SDS011;5197;48.152;8.590;2023-08-31T10:23:22;3.53;;;1.97;;
10303;SDS011;5197;48.152;8.590;2023-08-31T10:28:17;1.47;;;1.37;;
10303;SDS011;5197;48.152;8.590;2023-08-31T10:31:02;3.53;;;1.60;;
10303;SDS011;5197;48.152;8.590;2023-08-31T10:34:14;3.53;;;1.70;;
10303;SDS011;5197;48.152;8.590;2023-08-31T10:36:38;1.47;;;1.37;;
10303;SDS011;5197;48.152;8.590;2023-08-31T10:39:15;4.03;;;1.53;;
10303;SDS011;5197;48.152;8.590;2023-08-31T10:41:54;3.20;;;1.43;;
10303;SDS011;5197;48.152;8.590;2023-08-31T10:44:22;2.60;;;1.53;;
10303;SDS011;5197;48.152;8.590;2023-08-31T10:46:51;1.77;;;1.40;;
10303;SDS011;5197;48.152;8.590;2023-08-31T10:49:20;7.43;;;2.17;;
10303;SDS011;5197;48.152;8.590;2023-08-31T10:51:49;2.53;;;1.80;;
10303;SDS011;5197;48.152;8.590;2023-08-31T10:54:26;3.90;;;1.70;;
10303;SDS011;5197;48.152;8.590;2023-08-31T10:56:54;2.53;;;1.47;;
10303;SDS011;5197;48.152;8.590;2023-08-31T11:02:08;4.70;;;1.80;;
10303;SDS011;5197;48.152;8.590;2023-08-31T11:04:52;3.00;;;1.70;;
10303;SDS011;5197;48.152;8.590;2023-08-31T11:07:23;3.67;;;1.77;;
10303;SDS011;5197;48.152;8.590;2023-08-31T11:10:05;2.93;;;1.40;;
10303;SDS011;5197;48.152;8.590;2023-08-31T11:12:34;1.97;;;1.73;;
10303;SDS011;5197;48.152;8.590;2023-08-31T11:15:01;3.37;;;1.57;;
10303;SDS011;5197;48.152;8.590;2023-08-31T11:17:30;4.33;;;1.60;;
10303;SDS011;5197;48.152;8.590;2023-08-31T11:20:01;3.87;;;1.80;;
10303;SDS011;5197;48.152;8.590;2023-08-31T11:22:32;3.93;;;1.97;;
10303;SDS011;5197;48.152;8.590;2023-08-31T11:25:02;3.40;;;1.93;;
10303;SDS011;5197;48.152;8.590;2023-08-31T11:27:29;2.43;;;1.53;;
10303;SDS011;5197;48.152;8.590;2023-08-31T11:29:56;2.33;;;1.60;;
10303;SDS011;5197;48.152;8.590;2023-08-31T11:32:26;2.33;;;1.40;;
10303;SDS011;5197;48.152;8.590;2023-08-31T11:34:53;3.40;;;1.87;;
10303;SDS011;5197;48.152;8.590;2023-08-31T11:37:21;2.63;;;1.63;;
10303;SDS011;5197;48.152;8.590;2023-08-31T11:39:49;5.27;;;1.93;;
10303;SDS011;5197;48.152;8.590;2023-08-31T11:42:20;3.60;;;1.90;;
10303;SDS011;5197;48.152;8.590;2023-08-31T11:44:49;4.20;;;1.50;;
10303;SDS011;5197;48.152;8.590;2023-08-31T11:47:18;3.27;;;1.67;;
10303;SDS011;5197;48.152;8.590;2023-08-31T11:49:46;4.97;;;1.70;;
10303;SDS011;5197;48.152;8.590;2023-08-31T11:52:15;6.13;;;1.80;;
10303;SDS011;5197;48.152;8.590;2023-08-31T11:54:43;3.33;;;1.50;;
10303;SDS011;5197;48.152;8.590;2023-08-31T11:57:10;3.10;;;1.87;;
10303;SDS011;5197;48.152;8.590;2023-08-31T11:59:37;3.30;;;1.53;;
10303;SDS011;5197;48.152;8.590;2023-08-31T12:02:06;2.33;;;1.73;;
10303;SDS011;5197;48.152;8.590;2023-08-31T12:04:43;2.70;;;1.50;;
10303;SDS011;5197;48.152;8.590;2023-08-31T12:07:11;2.42;;;1.85;;
10303;SDS011;5197;48.152;8.590;2023-08-31T12:09:45;2.78;;;1.70;;
10303;SDS011;5197;48.152;8.590;2023-08-31T12:12:19;2.27;;;1.60;;
10303;SDS011;5197;48.152;8.590;2023-08-31T12:14:52;4.93;;;2.10;;
10303;SDS011;5197;48.152;8.590;2023-08-31T12:17:19;4.10;;;1.70;;
10303;SDS011;5197;48.152;8.590;2023-08-31T12:19:46;2.95;;;1.80;;
10303;SDS011;5197;48.152;8.590;2023-08-31T12:22:13;3.65;;;2.05;;
10303;SDS011;5197;48.152;8.590;2023-08-31T12:24:40;2.50;;;1.80;;
10303;SDS011;5197;48.152;8.590;2023-08-31T12:27:08;3.22;;;1.40;;
10303;SDS011;5197;48.152;8.590;2023-08-31T12:29:35;3.15;;;1.88;;
10303;SDS011;5197;48.152;8.590;2023-08-31T12:32:03;3.30;;;1.77;;
10303;SDS011;5197;48.152;8.590;2023-08-31T12:34:31;3.28;;;1.70;;
10303;SDS011;5197;48.152;8.590;2023-08-31T12:36:58;2.78;;;1.80;;
10303;SDS011;5197;48.152;8.590;2023-08-31T12:39:26;5.47;;;2.25;;
10303;SDS011;5197;48.152;8.590;2023-08-31T12:41:54;3.60;;;1.83;;
10303;SDS011;5197;48.152;8.590;2023-08-31T12:44:31;7.03;;;1.83;;
10303;SDS011;5197;48.152;8.590;2023-08-31T12:46:58;5.13;;;2.10;;
10303;SDS011;5197;48.152;8.590;2023-08-31T12:49:25;4.43;;;1.83;;
10303;SDS011;5197;48.152;8.590;2023-08-31T12:51:52;2.10;;;1.80;;
10303;SDS011;5197;48.152;8.590;2023-08-31T12:54:19;4.32;;;1.92;;
10303;SDS011;5197;48.152;8.590;2023-08-31T12:56:46;2.40;;;1.65;;
10303;SDS011;5197;48.152;8.590;2023-08-31T12:59:14;3.28;;;1.60;;
10303;SDS011;5197;48.152;8.590;2023-08-31T13:01:41;2.95;;;1.63;;
10303;SDS011;5197;48.152;8.590;2023-08-31T13:04:08;3.45;;;1.90;;
10303;SDS011;5197;48.152;8.590;2023-08-31T13:06:35;2.58;;;1.52;;
10303;SDS011;5197;48.152;8.590;2023-08-31T13:09:03;4.00;;;1.98;;
10303;SDS011;5197;48.152;8.590;2023-08-31T13:11:32;4.45;;;1.65;;
10303;SDS011;5197;48.152;8.590;2023-08-31T13:13:59;2.80;;;2.00;;
10303;SDS011;5197;48.152;8.590;2023-08-31T13:16:26;2.78;;;1.73;;
10303;SDS011;5197;48.152;8.590;2023-08-31T13:18:53;3.17;;;1.77;;
10303;SDS011;5197;48.152;8.590;2023-08-31T13:21:20;1.70;;;1.60;;
10303;SDS011;5197;48.152;8.590;2023-08-31T13:23:47;2.83;;;1.83;;
10303;SDS011;5197;48.152;8.590;2023-08-31T13:26:15;2.70;;;1.70;;
10303;SDS011;5197;48.152;8.590;2023-08-31T13:28:42;1.80;;;1.70;;
10303;SDS011;5197;48.152;8.590;2023-08-31T13:31:10;2.50;;;1.63;;
10303;SDS011;5197;48.152;8.590;2023-08-31T13:33:38;1.75;;;1.33;;
10303;SDS011;5197;48.152;8.590;2023-08-31T13:36:05;3.42;;;1.80;;
10303;SDS011;5197;48.152;8.590;2023-08-31T13:38:32;2.22;;;1.70;;
10303;SDS011;5197;48.152;8.590;2023-08-31T13:40:59;2.58;;;1.55;;
10303;SDS011;5197;48.152;8.590;2023-08-31T13:43:27;2.20;;;1.75;;
10303;SDS011;5197;48.152;8.590;2023-08-31T13:45:54;4.63;;;1.75;;
10303;SDS011;5197;48.152;8.590;2023-08-31T13:48:23;2.15;;;1.80;;
10303;SDS011;5197;48.152;8.590;2023-08-31T13:50:50;2.47;;;1.55;;
10303;SDS011;5197;48.152;8.590;2023-08-31T13:53:18;3.22;;;1.70;;
10303;SDS011;5197;48.152;8.590;2023-08-31T13:55:45;2.13;;;1.52;;
10303;SDS011;5197;48.152;8.590;2023-08-31T13:58:12;3.42;;;1.80;;
10303;SDS011;5197;48.152;8.590;2023-08-31T14:00:40;3.38;;;1.67;;
10303;SDS011;5197;48.152;8.590;2023-08-31T14:03:08;3.22;;;2.00;;
10303;SDS011;5197;48.152;8.590;2023-08-31T14:05:35;4.95;;;2.72;;
10303;SDS011;5197;48.152;8.590;2023-08-31T14:08:02;2.17;;;1.73;;
10303;SDS011;5197;48.152;8.590;2023-08-31T14:10:31;2.35;;;1.30;;
10303;SDS011;5197;48.152;8.590;2023-08-31T14:13:02;2.47;;;1.80;;
10303;SDS011;5197;48.152;8.590;2023-08-31T14:15:29;2.95;;;1.80;;
10303;SDS011;5197;48.152;8.590;2023-08-31T14:17:57;4.13;;;1.90;;
10303;SDS011;5197;48.152;8.590;2023-08-31T14:20:24;3.90;;;1.73;;
10303;SDS011;5197;48.152;8.590;2023-08-31T14:22:51;5.47;;;1.70;;
10303;SDS011;5197;48.152;8.590;2023-08-31T14:25:19;2.95;;;2.03;;
10303;SDS011;5197;48.152;8.590;2023-08-31T14:27:46;2.88;;;1.52;;
10303;SDS011;5197;48.152;8.590;2023-08-31T14:30:14;2.25;;;1.70;;
10303;SDS011;5197;48.152;8.590;2023-08-31T14:32:41;4.35;;;2.03;;
10303;SDS011;5197;48.152;8.590;2023-08-31T14:35:08;3.10;;;1.88;;
10303;SDS011;5197;48.152;8.590;2023-08-31T14:37:36;2.80;;;1.80;;
10303;SDS011;5197;48.152;8.590;2023-08-31T14:40:03;3.03;;;1.70;;
10303;SDS011;5197;48.152;8.590;2023-08-31T14:42:33;2.65;;;1.70;;
10303;SDS011;5197;48.152;8.590;2023-08-31T14:45:02;2.55;;;1.60;;
10303;SDS011;5197;48.152;8.590;2023-08-31T14:47:29;1.60;;;1.50;;
10303;SDS011;5197;48.152;8.590;2023-08-31T14:49:57;6.47;;;1.70;;
10303;SDS011;5197;48.152;8.590;2023-08-31T14:52:24;2.17;;;1.67;;
10303;SDS011;5197;48.152;8.590;2023-08-31T14:54:51;2.17;;;1.70;;
10303;SDS011;5197;48.152;8.590;2023-08-31T14:57:20;2.97;;;1.52;;
10303;SDS011;5197;48.152;8.590;2023-08-31T14:59:48;3.25;;;1.70;;
10303;SDS011;5197;48.152;8.590;2023-08-31T15:02:17;5.85;;;1.95;;
10303;SDS011;5197;48.152;8.590;2023-08-31T15:04:48;4.03;;;1.70;;
10303;SDS011;5197;48.152;8.590;2023-08-31T15:07:18;4.43;;;1.80;;
10303;SDS011;5197;48.152;8.590;2023-08-31T15:09:45;1.70;;;1.50;;
10303;SDS011;5197;48.152;8.590;2023-08-31T15:12:12;1.60;;;1.50;;
10303;SDS011;5197;48.152;8.590;2023-08-31T15:14:39;4.30;;;1.92;;
10303;SDS011;5197;48.152;8.590;2023-08-31T15:17:06;2.70;;;1.80;;
10303;SDS011;5197;48.152;8.590;2023-08-31T15:19:33;2.45;;;1.67;;
10303;SDS011;5197;48.152;8.590;2023-08-31T15:22:00;3.40;;;1.80;;
10303;SDS011;5197;48.152;8.590;2023-08-31T15:24:30;2.85;;;1.77;;
10303;SDS011;5197;48.152;8.590;2023-08-31T15:26:58;4.10;;;1.88;;
10303;SDS011;5197;48.152;8.590;2023-08-31T15:29:26;2.67;;;1.67;;